Orbital elements of SL-8 R/B
| Launched | 16 December 1981 |
| Flight ended | – |
| Launch site | Plesetsk Missile and Space Complex, Russia |
| Owner | Commonwealth of Independent States (former USSR) |
| NORAD ID | 13003 |
| Date fetched |
Epoch osculation |
Inc. [°] |
Ecc. | RA asc node [hr] |
Arg Peri. [°] |
Mean anom [°] |
Mean motion [rev/day] |
Abs. mag |
| Date fetched |
Epoch osculation |
Inc. [°] |
Ecc. | RA asc node [hr] |
Arg Peri. [°] |
Mean anom [°] |
Mean motion [rev/day] |
Abs. mag |
| 2026 May 06 17:57 | 2026 May 05 08:46:51 | 82.9552 | 0.00813 | 22.2293 | 278.4139 | 256.0762 | 11.91541 | 4.743 |
| 2026 May 05 17:57 | 2026 May 05 08:46:51 | 82.9552 | 0.00813 | 22.2293 | 278.4139 | 256.0762 | 11.91541 | 4.743 |
| 2026 May 04 17:57 | 2026 Apr 30 15:15:42 | 82.9561 | 0.00814 | 22.3963 | 287.9838 | 256.0762 | 11.91541 | 4.743 |
| 2026 May 03 17:57 | 2026 Apr 30 15:15:42 | 82.9561 | 0.00814 | 22.3963 | 287.9838 | 256.0762 | 11.91541 | 4.743 |
| 2026 May 02 17:57 | 2026 Apr 30 15:15:42 | 82.9561 | 0.00814 | 22.3963 | 287.9838 | 256.0762 | 11.91541 | 4.743 |
| 2026 May 01 17:56 | 2026 Apr 30 15:15:42 | 82.9561 | 0.00814 | 22.3963 | 287.9838 | 256.0762 | 11.91541 | 4.743 |
| 2026 Apr 30 17:56 | 2026 Apr 30 15:15:42 | 82.9561 | 0.00814 | 22.3963 | 287.9838 | 256.0762 | 11.91541 | 4.743 |
| 2026 Apr 29 17:57 | 2026 Apr 24 00:39:50 | 82.9572 | 0.00815 | 22.6297 | 301.3358 | 256.0762 | 11.91541 | 4.743 |
| 2026 Apr 28 17:56 | 2026 Apr 24 00:39:50 | 82.9572 | 0.00815 | 22.6297 | 301.3358 | 256.0762 | 11.91541 | 4.743 |
| 2026 Apr 27 17:58 | 2026 Apr 24 00:39:50 | 82.9572 | 0.00815 | 22.6297 | 301.3358 | 256.0762 | 11.91541 | 4.743 |
| 2026 Apr 26 17:58 | 2026 Apr 24 00:39:50 | 82.9572 | 0.00815 | 22.6297 | 301.3358 | 256.0762 | 11.91541 | 4.743 |
| 2026 Apr 25 17:58 | 2026 Apr 24 00:39:50 | 82.9572 | 0.00815 | 22.6297 | 301.3358 | 256.0762 | 11.91541 | 4.743 |
| 2026 Apr 24 17:59 | 2026 Apr 24 00:39:50 | 82.9572 | 0.00815 | 22.6297 | 301.3358 | 256.0762 | 11.91541 | 4.743 |
| 2026 Apr 23 17:57 | 2026 Apr 19 09:54:01 | 82.9580 | 0.00816 | 22.7927 | 310.6451 | 256.0762 | 11.91541 | 4.743 |
| 2026 Apr 22 17:57 | 2026 Apr 19 09:54:01 | 82.9580 | 0.00816 | 22.7927 | 310.6451 | 256.0762 | 11.91541 | 4.743 |
| 2026 Apr 21 17:57 | 2026 Apr 19 09:54:01 | 82.9580 | 0.00816 | 22.7927 | 310.6451 | 256.0762 | 11.91541 | 4.743 |
| 2026 Apr 20 17:57 | 2026 Apr 19 09:54:01 | 82.9580 | 0.00816 | 22.7927 | 310.6451 | 256.0762 | 11.91541 | 4.743 |
| 2026 Apr 19 17:58 | 2026 Apr 19 09:54:01 | 82.9580 | 0.00816 | 22.7927 | 310.6451 | 256.0762 | 11.91541 | 4.743 |
| 2026 Apr 18 17:56 | 2026 Apr 13 02:39:25 | 82.9592 | 0.00818 | 23.0152 | 323.3294 | 256.0762 | 11.91541 | 4.743 |
| 2026 Apr 16 17:57 | 2026 Apr 13 02:39:25 | 82.9592 | 0.00818 | 23.0152 | 323.3294 | 256.0762 | 11.91541 | 4.743 |
| 2026 Apr 14 17:57 | 2026 Apr 13 02:39:25 | 82.9592 | 0.00818 | 23.0152 | 323.3294 | 256.0762 | 11.91541 | 4.743 |
| 2026 Apr 13 17:57 | 2026 Apr 13 02:39:25 | 82.9592 | 0.00818 | 23.0152 | 323.3294 | 256.0762 | 11.91541 | 4.743 |
| 2026 Apr 12 17:57 | 2026 Apr 08 05:36:21 | 82.9600 | 0.00820 | 23.1874 | 333.1300 | 256.0762 | 11.91541 | 4.743 |
| 2026 Apr 11 17:57 | 2026 Apr 08 05:36:21 | 82.9600 | 0.00820 | 23.1874 | 333.1300 | 256.0762 | 11.91541 | 4.743 |
| 2026 Apr 10 17:58 | 2026 Apr 08 05:36:21 | 82.9600 | 0.00820 | 23.1874 | 333.1300 | 256.0762 | 11.91541 | 4.743 |
| 2026 Apr 09 18:01 | 2026 Apr 08 05:36:21 | 82.9600 | 0.00820 | 23.1874 | 333.1300 | 256.0762 | 11.91541 | 4.743 |